sensor_id;sensor_type;location;lat;lon;timestamp;temperature;humidity
16980;DHT22;42288;52.182;21.156;2022-08-21T00:01:53;22.90;84.30
16980;DHT22;42288;52.182;21.156;2022-08-21T00:04:19;22.70;84.70
16980;DHT22;42288;52.182;21.156;2022-08-21T00:06:44;22.70;84.80
16980;DHT22;42288;52.182;21.156;2022-08-21T00:09:10;22.80;84.80
16980;DHT22;42288;52.182;21.156;2022-08-21T00:11:37;22.90;84.30
16980;DHT22;42288;52.182;21.156;2022-08-21T00:14:04;22.90;84.20
16980;DHT22;42288;52.182;21.156;2022-08-21T00:16:30;22.80;84.50
16980;DHT22;42288;52.182;21.156;2022-08-21T00:18:55;22.80;84.40
16980;DHT22;42288;52.182;21.156;2022-08-21T00:21:21;22.90;84.30
16980;DHT22;42288;52.182;21.156;2022-08-21T00:23:47;23.00;84.30
16980;DHT22;42288;52.182;21.156;2022-08-21T00:26:13;23.00;84.30
16980;DHT22;42288;52.182;21.156;2022-08-21T00:28:38;22.90;84.40
16980;DHT22;42288;52.182;21.156;2022-08-21T00:31:04;22.90;84.10
16980;DHT22;42288;52.182;21.156;2022-08-21T00:33:30;22.80;84.40
16980;DHT22;42288;52.182;21.156;2022-08-21T00:35:56;22.80;84.40
16980;DHT22;42288;52.182;21.156;2022-08-21T00:38:21;22.80;84.70
16980;DHT22;42288;52.182;21.156;2022-08-21T00:40:54;22.80;85.00
16980;DHT22;42288;52.182;21.156;2022-08-21T00:43:24;22.80;85.00
16980;DHT22;42288;52.182;21.156;2022-08-21T00:45:51;22.80;85.00
16980;DHT22;42288;52.182;21.156;2022-08-21T00:48:17;22.80;85.80
16980;DHT22;42288;52.182;21.156;2022-08-21T00:50:48;22.80;85.00
16980;DHT22;42288;52.182;21.156;2022-08-21T00:53:15;22.70;85.20
16980;DHT22;42288;52.182;21.156;2022-08-21T00:55:41;22.60;85.60
16980;DHT22;42288;52.182;21.156;2022-08-21T00:58:09;22.50;85.80
16980;DHT22;42288;52.182;21.156;2022-08-21T01:00:38;22.50;85.70
16980;DHT22;42288;52.182;21.156;2022-08-21T01:03:11;22.60;86.40
16980;DHT22;42288;52.182;21.156;2022-08-21T01:05:37;22.30;86.80
16980;DHT22;42288;52.182;21.156;2022-08-21T01:08:04;22.30;87.30
16980;DHT22;42288;52.182;21.156;2022-08-21T01:10:31;22.20;87.50
16980;DHT22;42288;52.182;21.156;2022-08-21T01:12:57;22.20;87.50
16980;DHT22;42288;52.182;21.156;2022-08-21T01:15:32;22.20;87.40
16980;DHT22;42288;52.182;21.156;2022-08-21T01:17:58;22.10;87.60
16980;DHT22;42288;52.182;21.156;2022-08-21T01:20:24;22.10;88.40
16980;DHT22;42288;52.182;21.156;2022-08-21T01:22:50;22.10;88.30
16980;DHT22;42288;52.182;21.156;2022-08-21T01:25:17;22.20;88.50
16980;DHT22;42288;52.182;21.156;2022-08-21T01:27:44;22.10;88.40
16980;DHT22;42288;52.182;21.156;2022-08-21T01:30:14;22.10;88.40
16980;DHT22;42288;52.182;21.156;2022-08-21T01:32:41;22.00;88.40
16980;DHT22;42288;52.182;21.156;2022-08-21T01:35:07;22.00;88.50
16980;DHT22;42288;52.182;21.156;2022-08-21T01:37:33;21.90;88.70
16980;DHT22;42288;52.182;21.156;2022-08-21T01:39:58;21.80;88.80
16980;DHT22;42288;52.182;21.156;2022-08-21T01:42:25;21.80;89.10
16980;DHT22;42288;52.182;21.156;2022-08-21T01:44:50;21.70;89.00
16980;DHT22;42288;52.182;21.156;2022-08-21T01:47:16;21.70;89.30
16980;DHT22;42288;52.182;21.156;2022-08-21T01:49:43;21.70;89.30
16980;DHT22;42288;52.182;21.156;2022-08-21T01:52:09;21.70;89.20
16980;DHT22;42288;52.182;21.156;2022-08-21T01:54:36;21.70;89.30
16980;DHT22;42288;52.182;21.156;2022-08-21T01:57:02;21.60;89.30
16980;DHT22;42288;52.182;21.156;2022-08-21T01:59:28;21.50;89.40
16980;DHT22;42288;52.182;21.156;2022-08-21T02:01:53;21.50;89.80
16980;DHT22;42288;52.182;21.156;2022-08-21T02:04:23;21.40;90.00
16980;DHT22;42288;52.182;21.156;2022-08-21T02:06:49;21.40;90.10
16980;DHT22;42288;52.182;21.156;2022-08-21T02:09:15;21.40;90.10
16980;DHT22;42288;52.182;21.156;2022-08-21T02:11:41;21.30;90.10
16980;DHT22;42288;52.182;21.156;2022-08-21T02:14:08;21.30;90.20
16980;DHT22;42288;52.182;21.156;2022-08-21T02:16:35;21.30;90.20
16980;DHT22;42288;52.182;21.156;2022-08-21T02:19:00;21.30;90.20
16980;DHT22;42288;52.182;21.156;2022-08-21T02:21:26;21.20;90.20
16980;DHT22;42288;52.182;21.156;2022-08-21T02:23:51;21.20;90.40
16980;DHT22;42288;52.182;21.156;2022-08-21T02:26:17;21.10;90.70
16980;DHT22;42288;52.182;21.156;2022-08-21T02:28:42;21.00;91.00
16980;DHT22;42288;52.182;21.156;2022-08-21T02:31:08;21.00;91.00
16980;DHT22;42288;52.182;21.156;2022-08-21T02:33:34;21.00;91.00
16980;DHT22;42288;52.182;21.156;2022-08-21T02:36:00;21.00;90.80
16980;DHT22;42288;52.182;21.156;2022-08-21T02:38:29;21.00;90.70
16980;DHT22;42288;52.182;21.156;2022-08-21T02:40:56;21.00;90.80
16980;DHT22;42288;52.182;21.156;2022-08-21T02:43:23;21.00;91.00
16980;DHT22;42288;52.182;21.156;2022-08-21T02:45:49;21.00;91.10
16980;DHT22;42288;52.182;21.156;2022-08-21T02:48:19;20.90;91.10
16980;DHT22;42288;52.182;21.156;2022-08-21T02:50:52;20.90;91.10
16980;DHT22;42288;52.182;21.156;2022-08-21T02:53:18;20.90;91.10
16980;DHT22;42288;52.182;21.156;2022-08-21T02:55:47;20.80;91.00
16980;DHT22;42288;52.182;21.156;2022-08-21T02:58:15;20.90;91.10
16980;DHT22;42288;52.182;21.156;2022-08-21T03:00:41;20.80;91.50
16980;DHT22;42288;52.182;21.156;2022-08-21T03:03:09;20.50;92.10
16980;DHT22;42288;52.182;21.156;2022-08-21T03:05:35;20.40;92.30
16980;DHT22;42288;52.182;21.156;2022-08-21T03:08:04;20.40;92.50
16980;DHT22;42288;52.182;21.156;2022-08-21T03:10:30;20.40;92.30
16980;DHT22;42288;52.182;21.156;2022-08-21T03:12:59;20.50;92.20
16980;DHT22;42288;52.182;21.156;2022-08-21T03:15:24;20.40;92.30
16980;DHT22;42288;52.182;21.156;2022-08-21T03:17:50;20.50;92.20
16980;DHT22;42288;52.182;21.156;2022-08-21T03:20:18;20.50;92.20
16980;DHT22;42288;52.182;21.156;2022-08-21T03:22:45;20.40;92.30
16980;DHT22;42288;52.182;21.156;2022-08-21T03:25:10;20.50;92.40
16980;DHT22;42288;52.182;21.156;2022-08-21T03:27:36;20.50;92.20
16980;DHT22;42288;52.182;21.156;2022-08-21T03:30:05;20.40;92.20
16980;DHT22;42288;52.182;21.156;2022-08-21T03:32:31;20.50;92.40
16980;DHT22;42288;52.182;21.156;2022-08-21T03:34:57;20.50;92.40
16980;DHT22;42288;52.182;21.156;2022-08-21T03:37:23;20.50;92.40
16980;DHT22;42288;52.182;21.156;2022-08-21T03:39:50;20.40;92.50
16980;DHT22;42288;52.182;21.156;2022-08-21T03:42:15;20.40;92.30
16980;DHT22;42288;52.182;21.156;2022-08-21T03:44:41;20.40;92.10
16980;DHT22;42288;52.182;21.156;2022-08-21T03:47:06;20.50;92.00
16980;DHT22;42288;52.182;21.156;2022-08-21T03:49:33;20.50;91.90
16980;DHT22;42288;52.182;21.156;2022-08-21T03:51:59;20.30;91.90
16980;DHT22;42288;52.182;21.156;2022-08-21T03:54:25;20.30;92.10
16980;DHT22;42288;52.182;21.156;2022-08-21T03:56:51;20.20;92.60
16980;DHT22;42288;52.182;21.156;2022-08-21T03:59:17;20.20;92.90
16980;DHT22;42288;52.182;21.156;2022-08-21T04:01:58;20.30;92.90
16980;DHT22;42288;52.182;21.156;2022-08-21T04:04:24;20.40;92.90
16980;DHT22;42288;52.182;21.156;2022-08-21T04:06:50;20.50;92.60
16980;DHT22;42288;52.182;21.156;2022-08-21T04:09:16;20.50;92.40
16980;DHT22;42288;52.182;21.156;2022-08-21T04:11:42;20.50;92.30
16980;DHT22;42288;52.182;21.156;2022-08-21T04:14:07;20.60;92.20
16980;DHT22;42288;52.182;21.156;2022-08-21T04:16:33;20.50;92.50
16980;DHT22;42288;52.182;21.156;2022-08-21T04:18:59;20.20;93.10
16980;DHT22;42288;52.182;21.156;2022-08-21T04:21:24;20.20;93.40
16980;DHT22;42288;52.182;21.156;2022-08-21T04:23:50;20.20;93.40
16980;DHT22;42288;52.182;21.156;2022-08-21T04:26:15;20.50;93.30
16980;DHT22;42288;52.182;21.156;2022-08-21T04:28:41;20.50;93.00
16980;DHT22;42288;52.182;21.156;2022-08-21T04:31:07;20.30;93.20
16980;DHT22;42288;52.182;21.156;2022-08-21T04:33:33;20.40;93.30
16980;DHT22;42288;52.182;21.156;2022-08-21T04:35:58;20.40;93.40
16980;DHT22;42288;52.182;21.156;2022-08-21T04:38:24;20.40;93.60
16980;DHT22;42288;52.182;21.156;2022-08-21T04:40:50;20.50;93.50
16980;DHT22;42288;52.182;21.156;2022-08-21T04:43:18;20.70;93.20
16980;DHT22;42288;52.182;21.156;2022-08-21T04:45:46;20.90;92.90
16980;DHT22;42288;52.182;21.156;2022-08-21T04:48:13;21.00;93.10
16980;DHT22;42288;52.182;21.156;2022-08-21T04:53:47;21.30;92.30
16980;DHT22;42288;52.182;21.156;2022-08-21T04:56:22;21.40;92.10
16980;DHT22;42288;52.182;21.156;2022-08-21T04:58:49;21.40;91.90
16980;DHT22;42288;52.182;21.156;2022-08-21T05:01:19;21.60;91.90
16980;DHT22;42288;52.182;21.156;2022-08-21T05:03:48;21.50;91.70
16980;DHT22;42288;52.182;21.156;2022-08-21T05:06:16;21.60;91.80
16980;DHT22;42288;52.182;21.156;2022-08-21T05:08:43;21.60;91.80
16980;DHT22;42288;52.182;21.156;2022-08-21T05:11:10;21.80;91.60
16980;DHT22;42288;52.182;21.156;2022-08-21T05:13:36;21.80;91.50
16980;DHT22;42288;52.182;21.156;2022-08-21T05:16:02;21.80;91.60
16980;DHT22;42288;52.182;21.156;2022-08-21T05:18:28;21.90;91.40
16980;DHT22;42288;52.182;21.156;2022-08-21T05:20:53;21.90;91.40
16980;DHT22;42288;52.182;21.156;2022-08-21T05:23:19;21.90;91.20
16980;DHT22;42288;52.182;21.156;2022-08-21T05:25:44;22.00;91.20
16980;DHT22;42288;52.182;21.156;2022-08-21T05:28:10;22.00;91.10
16980;DHT22;42288;52.182;21.156;2022-08-21T05:30:37;22.30;91.20
16980;DHT22;42288;52.182;21.156;2022-08-21T05:33:04;22.20;90.90
16980;DHT22;42288;52.182;21.156;2022-08-21T05:35:31;22.40;90.70
16980;DHT22;42288;52.182;21.156;2022-08-21T05:37:57;22.60;90.40
16980;DHT22;42288;52.182;21.156;2022-08-21T05:40:23;22.70;90.40
16980;DHT22;42288;52.182;21.156;2022-08-21T05:42:50;23.00;90.00
16980;DHT22;42288;52.182;21.156;2022-08-21T05:45:15;23.00;88.90
16980;DHT22;42288;52.182;21.156;2022-08-21T05:47:42;23.20;89.10
16980;DHT22;42288;52.182;21.156;2022-08-21T05:50:08;23.30;88.80
16980;DHT22;42288;52.182;21.156;2022-08-21T05:52:33;23.20;88.10
16980;DHT22;42288;52.182;21.156;2022-08-21T05:54:59;23.30;87.90
16980;DHT22;42288;52.182;21.156;2022-08-21T05:57:24;23.50;87.80
16980;DHT22;42288;52.182;21.156;2022-08-21T05:59:50;23.50;87.40
16980;DHT22;42288;52.182;21.156;2022-08-21T06:02:19;23.30;87.70
16980;DHT22;42288;52.182;21.156;2022-08-21T06:04:45;23.40;88.00
16980;DHT22;42288;52.182;21.156;2022-08-21T06:07:11;23.60;87.90
16980;DHT22;42288;52.182;21.156;2022-08-21T06:09:36;23.80;87.10
16980;DHT22;42288;52.182;21.156;2022-08-21T06:12:11;23.80;87.20
16980;DHT22;42288;52.182;21.156;2022-08-21T06:14:38;23.90;87.60
16980;DHT22;42288;52.182;21.156;2022-08-21T06:17:05;24.00;86.60
16980;DHT22;42288;52.182;21.156;2022-08-21T06:19:30;24.10;86.10
16980;DHT22;42288;52.182;21.156;2022-08-21T06:21:56;24.30;85.80
16980;DHT22;42288;52.182;21.156;2022-08-21T06:24:22;24.50;84.80
16980;DHT22;42288;52.182;21.156;2022-08-21T06:26:47;24.60;84.40
16980;DHT22;42288;52.182;21.156;2022-08-21T06:29:13;24.60;83.90
16980;DHT22;42288;52.182;21.156;2022-08-21T06:31:42;24.60;83.80
16980;DHT22;42288;52.182;21.156;2022-08-21T06:34:08;24.70;84.30
16980;DHT22;42288;52.182;21.156;2022-08-21T06:36:34;24.80;83.60
16980;DHT22;42288;52.182;21.156;2022-08-21T06:38:59;24.90;83.10
16980;DHT22;42288;52.182;21.156;2022-08-21T06:41:25;24.80;83.20
16980;DHT22;42288;52.182;21.156;2022-08-21T06:43:51;24.60;83.30
16980;DHT22;42288;52.182;21.156;2022-08-21T06:46:17;25.00;83.90
16980;DHT22;42288;52.182;21.156;2022-08-21T06:48:42;25.00;82.60
16980;DHT22;42288;52.182;21.156;2022-08-21T06:51:08;25.20;83.20
16980;DHT22;42288;52.182;21.156;2022-08-21T06:53:34;25.40;82.20
16980;DHT22;42288;52.182;21.156;2022-08-21T06:55:59;25.50;81.40
16980;DHT22;42288;52.182;21.156;2022-08-21T06:58:25;25.60;80.70
16980;DHT22;42288;52.182;21.156;2022-08-21T07:00:51;25.50;80.80
16980;DHT22;42288;52.182;21.156;2022-08-21T07:03:24;25.50;81.00
16980;DHT22;42288;52.182;21.156;2022-08-21T07:05:51;25.50;80.50
16980;DHT22;42288;52.182;21.156;2022-08-21T07:08:16;25.30;80.00
16980;DHT22;42288;52.182;21.156;2022-08-21T07:10:42;25.20;81.10
16980;DHT22;42288;52.182;21.156;2022-08-21T07:13:07;25.50;80.80
16980;DHT22;42288;52.182;21.156;2022-08-21T07:15:33;25.60;80.00
16980;DHT22;42288;52.182;21.156;2022-08-21T07:17:59;25.40;80.20
16980;DHT22;42288;52.182;21.156;2022-08-21T07:20:26;25.50;81.10
16980;DHT22;42288;52.182;21.156;2022-08-21T07:22:51;25.50;80.50
16980;DHT22;42288;52.182;21.156;2022-08-21T07:25:17;25.70;81.20
16980;DHT22;42288;52.182;21.156;2022-08-21T07:27:42;25.80;80.80
16980;DHT22;42288;52.182;21.156;2022-08-21T07:30:08;25.90;80.90
16980;DHT22;42288;52.182;21.156;2022-08-21T07:32:34;26.00;80.80
16980;DHT22;42288;52.182;21.156;2022-08-21T07:34:59;26.10;80.90
16980;DHT22;42288;52.182;21.156;2022-08-21T07:37:25;26.10;79.50
16980;DHT22;42288;52.182;21.156;2022-08-21T07:39:50;26.10;79.00
16980;DHT22;42288;52.182;21.156;2022-08-21T07:42:17;26.20;78.80
16980;DHT22;42288;52.182;21.156;2022-08-21T07:44:42;26.30;78.30
16980;DHT22;42288;52.182;21.156;2022-08-21T07:47:08;26.10;77.80
16980;DHT22;42288;52.182;21.156;2022-08-21T07:49:34;26.10;77.80
16980;DHT22;42288;52.182;21.156;2022-08-21T07:51:59;26.20;78.80
16980;DHT22;42288;52.182;21.156;2022-08-21T07:54:25;26.40;78.00
16980;DHT22;42288;52.182;21.156;2022-08-21T07:56:51;26.60;77.80
16980;DHT22;42288;52.182;21.156;2022-08-21T07:59:16;26.80;77.50
16980;DHT22;42288;52.182;21.156;2022-08-21T08:01:42;26.90;75.80
16980;DHT22;42288;52.182;21.156;2022-08-21T08:04:07;26.90;76.20
16980;DHT22;42288;52.182;21.156;2022-08-21T08:06:33;26.90;75.70
16980;DHT22;42288;52.182;21.156;2022-08-21T08:08:59;26.90;75.20
16980;DHT22;42288;52.182;21.156;2022-08-21T08:11:24;27.10;75.40
16980;DHT22;42288;52.182;21.156;2022-08-21T08:13:51;27.20;75.40
16980;DHT22;42288;52.182;21.156;2022-08-21T08:16:17;27.30;74.00
16980;DHT22;42288;52.182;21.156;2022-08-21T08:18:43;27.30;73.60
16980;DHT22;42288;52.182;21.156;2022-08-21T08:21:12;27.20;73.10
16980;DHT22;42288;52.182;21.156;2022-08-21T08:23:37;27.40;74.00
16980;DHT22;42288;52.182;21.156;2022-08-21T08:26:04;27.40;74.20
16980;DHT22;42288;52.182;21.156;2022-08-21T08:28:30;27.40;73.00
16980;DHT22;42288;52.182;21.156;2022-08-21T08:30:57;27.30;73.00
16980;DHT22;42288;52.182;21.156;2022-08-21T08:33:23;27.20;73.00
16980;DHT22;42288;52.182;21.156;2022-08-21T08:35:50;27.30;72.60
16980;DHT22;42288;52.182;21.156;2022-08-21T08:38:18;27.30;72.90
16980;DHT22;42288;52.182;21.156;2022-08-21T08:41:12;27.40;71.90
16980;DHT22;42288;52.182;21.156;2022-08-21T08:43:39;27.30;72.10
16980;DHT22;42288;52.182;21.156;2022-08-21T08:46:11;27.50;71.20
16980;DHT22;42288;52.182;21.156;2022-08-21T08:49:01;27.80;70.70
16980;DHT22;42288;52.182;21.156;2022-08-21T08:54:07;28.10;70.00
16980;DHT22;42288;52.182;21.156;2022-08-21T08:56:35;27.90;68.90
16980;DHT22;42288;52.182;21.156;2022-08-21T08:59:07;28.00;69.40
16980;DHT22;42288;52.182;21.156;2022-08-21T09:01:34;28.10;68.50
16980;DHT22;42288;52.182;21.156;2022-08-21T09:04:00;28.10;68.40
16980;DHT22;42288;52.182;21.156;2022-08-21T09:06:58;28.20;68.40
16980;DHT22;42288;52.182;21.156;2022-08-21T09:10:03;28.10;68.20
16980;DHT22;42288;52.182;21.156;2022-08-21T09:16:05;28.40;67.30
16980;DHT22;42288;52.182;21.156;2022-08-21T09:18:44;28.70;66.40
16980;DHT22;42288;52.182;21.156;2022-08-21T09:24:30;28.70;65.70
16980;DHT22;42288;52.182;21.156;2022-08-21T09:27:08;28.60;64.00
16980;DHT22;42288;52.182;21.156;2022-08-21T09:29:38;28.50;64.70
16980;DHT22;42288;52.182;21.156;2022-08-21T09:32:10;28.80;66.00
16980;DHT22;42288;52.182;21.156;2022-08-21T09:34:36;28.90;65.20
16980;DHT22;42288;52.182;21.156;2022-08-21T09:37:02;29.10;64.80
16980;DHT22;42288;52.182;21.156;2022-08-21T09:39:32;29.30;64.80
16980;DHT22;42288;52.182;21.156;2022-08-21T09:42:08;29.50;62.40
16980;DHT22;42288;52.182;21.156;2022-08-21T09:44:37;29.70;61.20
16980;DHT22;42288;52.182;21.156;2022-08-21T09:47:10;29.70;61.50
16980;DHT22;42288;52.182;21.156;2022-08-21T09:49:40;29.90;60.20
16980;DHT22;42288;52.182;21.156;2022-08-21T09:52:19;29.70;60.30
16980;DHT22;42288;52.182;21.156;2022-08-21T09:54:53;29.50;59.60
16980;DHT22;42288;52.182;21.156;2022-08-21T09:57:27;29.20;61.10
16980;DHT22;42288;52.182;21.156;2022-08-21T10:00:25;29.00;60.40
16980;DHT22;42288;52.182;21.156;2022-08-21T10:02:51;29.20;60.80
16980;DHT22;42288;52.182;21.156;2022-08-21T10:05:21;29.60;61.30
16980;DHT22;42288;52.182;21.156;2022-08-21T10:07:48;29.50;61.40
16980;DHT22;42288;52.182;21.156;2022-08-21T10:10:31;29.60;60.40
16980;DHT22;42288;52.182;21.156;2022-08-21T10:13:33;29.60;59.50
16980;DHT22;42288;52.182;21.156;2022-08-21T10:16:24;29.50;59.90
16980;DHT22;42288;52.182;21.156;2022-08-21T10:22:02;29.60;59.50
16980;DHT22;42288;52.182;21.156;2022-08-21T10:24:33;29.40;59.00
16980;DHT22;42288;52.182;21.156;2022-08-21T10:27:20;29.30;59.50
16980;DHT22;42288;52.182;21.156;2022-08-21T10:29:59;29.40;60.10
16980;DHT22;42288;52.182;21.156;2022-08-21T10:35:15;29.40;58.50
16980;DHT22;42288;52.182;21.156;2022-08-21T10:40:28;30.90;58.00
16980;DHT22;42288;52.182;21.156;2022-08-21T10:46:03;30.30;58.20
16980;DHT22;42288;52.182;21.156;2022-08-21T10:48:51;30.10;58.50
16980;DHT22;42288;52.182;21.156;2022-08-21T10:54:50;29.80;59.40
16980;DHT22;42288;52.182;21.156;2022-08-21T11:00:16;29.60;59.30
16980;DHT22;42288;52.182;21.156;2022-08-21T11:03:07;29.70;59.10
16980;DHT22;42288;52.182;21.156;2022-08-21T11:05:42;29.50;59.10
16980;DHT22;42288;52.182;21.156;2022-08-21T11:08:14;29.60;60.00
16980;DHT22;42288;52.182;21.156;2022-08-21T11:10:50;29.60;60.10
16980;DHT22;42288;52.182;21.156;2022-08-21T11:13:24;29.70;59.80
16980;DHT22;42288;52.182;21.156;2022-08-21T11:18:28;29.30;61.30
16980;DHT22;42288;52.182;21.156;2022-08-21T11:21:02;29.20;61.10
16980;DHT22;42288;52.182;21.156;2022-08-21T11:23:37;29.30;61.60
16980;DHT22;42288;52.182;21.156;2022-08-21T11:26:15;29.20;61.30
16980;DHT22;42288;52.182;21.156;2022-08-21T11:28:56;29.40;61.10
16980;DHT22;42288;52.182;21.156;2022-08-21T11:31:44;29.40;62.30
16980;DHT22;42288;52.182;21.156;2022-08-21T11:34:29;29.10;61.20
16980;DHT22;42288;52.182;21.156;2022-08-21T11:37:22;29.30;61.50
16980;DHT22;42288;52.182;21.156;2022-08-21T11:39:57;29.50;61.60
16980;DHT22;42288;52.182;21.156;2022-08-21T11:50:29;30.40;58.00
16980;DHT22;42288;52.182;21.156;2022-08-21T11:53:16;30.50;57.80
16980;DHT22;42288;52.182;21.156;2022-08-21T11:55:51;30.50;57.70
16980;DHT22;42288;52.182;21.156;2022-08-21T11:58:38;30.00;58.60
16980;DHT22;42288;52.182;21.156;2022-08-21T12:01:16;30.30;58.60
16980;DHT22;42288;52.182;21.156;2022-08-21T12:04:04;30.70;58.50
16980;DHT22;42288;52.182;21.156;2022-08-21T12:06:34;30.70;57.70
16980;DHT22;42288;52.182;21.156;2022-08-21T12:09:05;30.40;57.30
16980;DHT22;42288;52.182;21.156;2022-08-21T12:11:31;30.40;57.40
16980;DHT22;42288;52.182;21.156;2022-08-21T12:14:12;30.50;57.40
16980;DHT22;42288;52.182;21.156;2022-08-21T12:16:41;30.50;57.60
16980;DHT22;42288;52.182;21.156;2022-08-21T12:19:11;30.50;57.30
16980;DHT22;42288;52.182;21.156;2022-08-21T12:24:37;30.70;56.30
16980;DHT22;42288;52.182;21.156;2022-08-21T12:27:27;30.50;57.30
16980;DHT22;42288;52.182;21.156;2022-08-21T12:30:00;30.40;57.40
16980;DHT22;42288;52.182;21.156;2022-08-21T12:32:54;30.40;58.10
16980;DHT22;42288;52.182;21.156;2022-08-21T12:35:26;29.90;58.10
16980;DHT22;42288;52.182;21.156;2022-08-21T12:38:01;29.90;58.30
16980;DHT22;42288;52.182;21.156;2022-08-21T12:40:36;29.90;58.50
16980;DHT22;42288;52.182;21.156;2022-08-21T12:43:03;29.80;58.70
16980;DHT22;42288;52.182;21.156;2022-08-21T12:45:59;29.60;58.60
16980;DHT22;42288;52.182;21.156;2022-08-21T12:51:06;29.50;58.90
16980;DHT22;42288;52.182;21.156;2022-08-21T12:53:44;29.70;58.30
16980;DHT22;42288;52.182;21.156;2022-08-21T12:56:14;29.70;58.10
16980;DHT22;42288;52.182;21.156;2022-08-21T12:58:50;29.70;58.80
16980;DHT22;42288;52.182;21.156;2022-08-21T13:03:58;29.90;58.30
16980;DHT22;42288;52.182;21.156;2022-08-21T13:06:25;30.00;57.80
16980;DHT22;42288;52.182;21.156;2022-08-21T13:08:58;29.80;58.80
16980;DHT22;42288;52.182;21.156;2022-08-21T13:11:28;29.90;58.80
16980;DHT22;42288;52.182;21.156;2022-08-21T13:13:54;30.00;59.00
16980;DHT22;42288;52.182;21.156;2022-08-21T13:16:26;30.00;58.70
16980;DHT22;42288;52.182;21.156;2022-08-21T13:19:05;29.70;58.80
16980;DHT22;42288;52.182;21.156;2022-08-21T13:21:39;29.70;59.10
16980;DHT22;42288;52.182;21.156;2022-08-21T13:24:18;29.40;59.30
16980;DHT22;42288;52.182;21.156;2022-08-21T13:26:46;29.10;59.60
16980;DHT22;42288;52.182;21.156;2022-08-21T13:29:13;29.00;60.20
16980;DHT22;42288;52.182;21.156;2022-08-21T13:31:45;29.10;60.00
16980;DHT22;42288;52.182;21.156;2022-08-21T13:34:11;29.20;60.20
16980;DHT22;42288;52.182;21.156;2022-08-21T13:36:39;29.10;60.10
16980;DHT22;42288;52.182;21.156;2022-08-21T13:39:12;28.90;59.70
16980;DHT22;42288;52.182;21.156;2022-08-21T13:41:43;29.00;59.70
16980;DHT22;42288;52.182;21.156;2022-08-21T13:44:17;29.10;59.90
16980;DHT22;42288;52.182;21.156;2022-08-21T13:46:43;29.00;60.00
16980;DHT22;42288;52.182;21.156;2022-08-21T13:49:10;29.30;60.00
16980;DHT22;42288;52.182;21.156;2022-08-21T13:51:38;29.30;59.50
16980;DHT22;42288;52.182;21.156;2022-08-21T13:56:45;29.00;59.50
16980;DHT22;42288;52.182;21.156;2022-08-21T13:59:11;28.90;60.10
16980;DHT22;42288;52.182;21.156;2022-08-21T14:01:47;29.00;60.10
16980;DHT22;42288;52.182;21.156;2022-08-21T14:04:24;28.80;60.20
16980;DHT22;42288;52.182;21.156;2022-08-21T14:06:51;28.90;59.70
16980;DHT22;42288;52.182;21.156;2022-08-21T14:09:33;29.00;59.40
16980;DHT22;42288;52.182;21.156;2022-08-21T14:12:02;29.30;59.70
16980;DHT22;42288;52.182;21.156;2022-08-21T14:14:38;29.40;59.10
16980;DHT22;42288;52.182;21.156;2022-08-21T14:17:07;29.40;59.00
16980;DHT22;42288;52.182;21.156;2022-08-21T14:19:43;29.60;58.90
16980;DHT22;42288;52.182;21.156;2022-08-21T14:24:59;29.50;59.00
16980;DHT22;42288;52.182;21.156;2022-08-21T14:27:26;29.40;58.30
16980;DHT22;42288;52.182;21.156;2022-08-21T14:30:03;29.50;58.60
16980;DHT22;42288;52.182;21.156;2022-08-21T14:32:38;29.60;58.20
16980;DHT22;42288;52.182;21.156;2022-08-21T14:35:04;29.50;57.80
16980;DHT22;42288;52.182;21.156;2022-08-21T14:37:29;29.40;58.20
16980;DHT22;42288;52.182;21.156;2022-08-21T14:39:55;29.40;58.50
16980;DHT22;42288;52.182;21.156;2022-08-21T14:42:20;29.30;59.00
16980;DHT22;42288;52.182;21.156;2022-08-21T14:44:46;29.10;59.10
16980;DHT22;42288;52.182;21.156;2022-08-21T14:47:12;29.00;59.10
16980;DHT22;42288;52.182;21.156;2022-08-21T14:49:37;29.10;58.90
16980;DHT22;42288;52.182;21.156;2022-08-21T14:52:04;29.00;58.90
16980;DHT22;42288;52.182;21.156;2022-08-21T14:54:31;29.00;59.00
16980;DHT22;42288;52.182;21.156;2022-08-21T14:57:07;29.00;59.10
16980;DHT22;42288;52.182;21.156;2022-08-21T14:59:34;29.00;59.60
16980;DHT22;42288;52.182;21.156;2022-08-21T15:02:01;28.90;59.20
16980;DHT22;42288;52.182;21.156;2022-08-21T15:04:29;28.80;58.50
16980;DHT22;42288;52.182;21.156;2022-08-21T15:06:55;28.80;58.90
16980;DHT22;42288;52.182;21.156;2022-08-21T15:09:21;28.90;58.70
16980;DHT22;42288;52.182;21.156;2022-08-21T15:11:46;28.90;59.20
16980;DHT22;42288;52.182;21.156;2022-08-21T15:14:23;29.00;58.30
16980;DHT22;42288;52.182;21.156;2022-08-21T15:16:50;29.00;58.30
16980;DHT22;42288;52.182;21.156;2022-08-21T15:19:16;29.00;58.20
16980;DHT22;42288;52.182;21.156;2022-08-21T15:21:41;29.00;58.40
16980;DHT22;42288;52.182;21.156;2022-08-21T15:24:07;28.70;58.50
16980;DHT22;42288;52.182;21.156;2022-08-21T15:26:34;28.60;59.00
16980;DHT22;42288;52.182;21.156;2022-08-21T15:29:00;28.70;59.20
16980;DHT22;42288;52.182;21.156;2022-08-21T15:31:26;28.70;60.00
16980;DHT22;42288;52.182;21.156;2022-08-21T15:33:52;28.70;60.80
16980;DHT22;42288;52.182;21.156;2022-08-21T15:36:18;28.70;60.60
16980;DHT22;42288;52.182;21.156;2022-08-21T15:38:44;28.70;61.30
16980;DHT22;42288;52.182;21.156;2022-08-21T15:41:10;28.60;62.20
16980;DHT22;42288;52.182;21.156;2022-08-21T15:43:45;28.60;62.40
16980;DHT22;42288;52.182;21.156;2022-08-21T15:46:13;28.60;62.80
16980;DHT22;42288;52.182;21.156;2022-08-21T15:48:39;28.40;62.70
16980;DHT22;42288;52.182;21.156;2022-08-21T15:51:04;28.20;63.50
16980;DHT22;42288;52.182;21.156;2022-08-21T15:53:30;28.20;63.50
16980;DHT22;42288;52.182;21.156;2022-08-21T15:56:00;28.10;63.70
16980;DHT22;42288;52.182;21.156;2022-08-21T15:58:26;28.00;64.00
16980;DHT22;42288;52.182;21.156;2022-08-21T16:00:52;27.90;64.90
16980;DHT22;42288;52.182;21.156;2022-08-21T16:03:18;27.70;65.00
16980;DHT22;42288;52.182;21.156;2022-08-21T16:05:47;27.70;65.80
16980;DHT22;42288;52.182;21.156;2022-08-21T16:08:18;27.50;65.90
16980;DHT22;42288;52.182;21.156;2022-08-21T16:10:44;27.50;66.30
16980;DHT22;42288;52.182;21.156;2022-08-21T16:13:25;27.40;66.20
16980;DHT22;42288;52.182;21.156;2022-08-21T16:15:52;27.30;67.00
16980;DHT22;42288;52.182;21.156;2022-08-21T16:18:18;26.90;67.50
16980;DHT22;42288;52.182;21.156;2022-08-21T16:20:45;26.70;68.00
16980;DHT22;42288;52.182;21.156;2022-08-21T16:23:11;26.70;68.70